createdAt,value
2018-04-12T00:00:48.274Z,4.20
2018-04-12T00:03:17.274Z,4.30
2018-04-12T00:05:45.104Z,4.00
2018-04-12T00:08:13.112Z,3.77
2018-04-12T00:10:40.618Z,3.17
2018-04-12T00:13:08.135Z,3.83
2018-04-12T00:15:35.676Z,3.77
2018-04-12T00:18:03.178Z,3.60
2018-04-12T00:20:30.703Z,3.63
2018-04-12T00:22:58.242Z,3.70
2018-04-12T00:25:25.746Z,2.90
2018-04-12T00:27:53.266Z,3.93
2018-04-12T00:30:21.720Z,3.17
2018-04-12T00:32:50.015Z,3.80
2018-04-12T00:35:17.531Z,3.85
2018-04-12T00:37:45.065Z,3.60
2018-04-12T00:40:12.573Z,3.60
2018-04-12T00:42:40.090Z,3.60
2018-04-12T00:45:07.631Z,3.83
2018-04-12T00:47:35.139Z,3.10
2018-04-12T00:50:02.652Z,3.53
2018-04-12T00:52:30.514Z,3.25
2018-04-12T00:54:58.125Z,4.33
2018-04-12T00:57:25.641Z,3.60
2018-04-12T00:59:53.178Z,3.43
2018-04-12T01:02:21.425Z,3.50
2018-04-12T01:04:50.225Z,3.30
2018-04-12T01:07:17.765Z,3.77
2018-04-12T01:09:45.270Z,3.70
2018-04-12T01:12:13.751Z,4.10
2018-04-12T01:14:41.346Z,3.40
2018-04-12T01:17:08.871Z,3.50
2018-04-12T01:19:36.379Z,4.30
2018-04-12T01:22:03.919Z,3.43
2018-04-12T01:24:31.436Z,3.33
2018-04-12T01:26:58.950Z,3.57
2018-04-12T01:29:26.516Z,3.00
2018-04-12T01:31:54.037Z,4.17
2018-04-12T01:34:21.580Z,3.37
2018-04-12T01:36:49.756Z,2.90
2018-04-12T01:39:17.286Z,3.50
2018-04-12T01:41:45.150Z,3.30
2018-04-12T01:44:14.379Z,3.30
2018-04-12T01:46:41.894Z,3.20
2018-04-12T01:49:09.411Z,2.90
2018-04-12T01:51:36.951Z,2.43
2018-04-12T01:54:04.489Z,3.07
2018-04-12T01:56:32.008Z,2.78
2018-04-12T01:59:00.341Z,2.80
2018-04-12T02:01:27.843Z,2.62
2018-04-12T02:03:55.660Z,3.10
2018-04-12T02:06:23.195Z,3.90
2018-04-12T02:08:51.474Z,3.10
2018-04-12T02:11:18.986Z,2.80
2018-04-12T02:13:46.526Z,3.00
2018-04-12T02:16:16.294Z,3.75
2018-04-12T02:18:43.802Z,2.40
2018-04-12T02:21:11.802Z,3.10
2018-04-12T02:23:39.331Z,2.97
2018-04-12T02:26:06.838Z,3.70
2018-04-12T02:28:35.142Z,2.70
2018-04-12T02:31:02.662Z,2.87
2018-04-12T02:33:30.170Z,3.20
2018-04-12T02:35:57.698Z,2.53
2018-04-12T02:38:25.206Z,2.93
2018-04-12T02:40:52.713Z,2.63
2018-04-12T02:43:20.760Z,2.55
2018-04-12T02:45:49.056Z,2.17
2018-04-12T02:48:17.326Z,2.50
2018-04-12T02:50:45.684Z,2.40
2018-04-12T02:53:15.394Z,2.92
2018-04-12T02:55:42.910Z,3.03
2018-04-12T02:58:10.470Z,2.50
2018-04-12T03:00:38.018Z,2.73
2018-04-12T03:03:05.532Z,2.93
2018-04-12T03:05:34.990Z,2.47
2018-04-12T03:08:02.510Z,3.15
2018-04-12T03:10:30.789Z,2.62
2018-04-12T03:12:59.103Z,2.50
2018-04-12T03:15:26.608Z,2.93
2018-04-12T03:17:54.123Z,2.50
2018-04-12T03:20:21.690Z,2.70
2018-04-12T03:22:49.206Z,2.23
2018-04-12T03:25:16.722Z,2.57
2018-04-12T03:27:44.642Z,2.60
2018-04-12T03:30:12.154Z,2.50
2018-04-12T03:32:40.451Z,2.93
2018-04-12T03:35:08.752Z,2.40
2018-04-12T03:37:36.270Z,2.70
2018-04-12T03:40:03.794Z,2.43
2018-04-12T03:42:31.410Z,2.20
2018-04-12T03:44:59.680Z,2.60
2018-04-12T03:47:27.959Z,2.83
2018-04-12T03:49:56.762Z,2.20
2018-04-12T03:52:24.274Z,2.90
2018-04-12T03:54:51.783Z,2.60
2018-04-12T03:57:19.326Z,2.20
2018-04-12T03:59:46.830Z,2.00
2018-04-12T04:02:15.511Z,2.30
2018-04-12T04:04:43.812Z,2.20
2018-04-12T04:07:11.890Z,2.30
2018-04-12T04:09:39.398Z,2.20
2018-04-12T04:12:07.513Z,2.67
2018-04-12T04:14:41.919Z,3.17
2018-04-12T04:17:21.266Z,2.40
2018-04-12T04:20:00.361Z,2.00
2018-04-12T04:22:27.890Z,2.20
2018-04-12T04:24:55.390Z,1.90
2018-04-12T04:27:22.902Z,1.57
2018-04-12T04:29:51.252Z,1.50
2018-04-12T04:32:18.755Z,1.67
2018-04-12T04:34:46.262Z,2.40
2018-04-12T04:37:25.314Z,2.40
2018-04-12T04:42:31.489Z,3.00
2018-04-12T04:45:02.897Z,1.53
2018-04-12T04:47:30.455Z,1.80
2018-04-12T04:49:58.563Z,2.23
2018-04-12T04:52:26.158Z,2.00
2018-04-12T04:54:53.706Z,1.73
2018-04-12T04:57:21.930Z,2.10
2018-04-12T04:59:49.433Z,1.70
2018-04-12T05:02:16.942Z,1.80
2018-04-12T05:04:44.488Z,1.85
2018-04-12T05:07:12.425Z,1.43
2018-04-12T05:09:40.715Z,1.77
2018-04-12T05:12:08.566Z,2.17
2018-04-12T05:14:36.074Z,1.30
2018-04-12T05:17:03.582Z,2.00
2018-04-12T05:19:31.111Z,1.43
2018-04-12T05:21:59.406Z,1.20
2018-04-12T05:24:27.673Z,1.60
2018-04-12T05:26:55.214Z,2.10
2018-04-12T05:29:22.734Z,1.40
2018-04-12T05:31:50.241Z,1.23
2018-04-12T05:34:18.167Z,1.90
2018-04-12T05:36:45.679Z,2.00
2018-04-12T05:39:14.611Z,1.42
2018-04-12T05:41:42.162Z,1.63
2018-04-12T05:44:09.670Z,1.60
2018-04-12T05:46:37.182Z,1.60
2018-04-12T05:49:05.479Z,2.00
2018-04-12T05:51:32.987Z,2.10
2018-04-12T05:54:00.498Z,2.10
2018-04-12T05:56:28.406Z,2.27
2018-04-12T05:58:56.674Z,1.97
2018-04-12T06:01:25.044Z,1.80
2018-04-12T06:03:52.571Z,1.80
2018-04-12T06:06:20.087Z,1.90
2018-04-12T06:08:48.319Z,1.60
2018-04-12T06:11:16.704Z,1.77
2018-04-12T06:13:44.239Z,1.43
2018-04-12T06:16:11.743Z,1.50
2018-04-12T06:18:39.631Z,2.37
2018-04-12T06:21:07.142Z,1.80
2018-04-12T06:23:34.647Z,2.23
2018-04-12T06:26:02.185Z,2.23
2018-04-12T06:28:30.461Z,1.80
2018-04-12T06:30:58.744Z,1.60
2018-04-12T06:33:26.274Z,1.60
2018-04-12T06:35:53.777Z,1.50
2018-04-12T06:38:21.281Z,1.35
2018-04-12T06:40:49.206Z,1.07
2018-04-12T06:43:16.711Z,1.77
2018-04-12T06:45:44.217Z,1.40
2018-04-12T06:48:11.776Z,1.40
2018-04-12T06:50:39.407Z,1.50
2018-04-12T06:53:07.681Z,1.00
2018-04-12T06:55:35.987Z,1.00
2018-04-12T06:58:03.498Z,1.25
2018-04-12T07:00:31.010Z,1.00
2018-04-12T07:02:59.002Z,0.93
2018-04-12T07:05:26.510Z,0.80
2018-04-12T07:07:54.023Z,1.03
2018-04-12T07:10:22.430Z,1.00
2018-04-12T07:12:50.703Z,0.87
2018-04-12T07:15:19.058Z,1.00
2018-04-12T07:17:46.595Z,1.00
2018-04-12T07:20:19.564Z,0.80
2018-04-12T07:25:42.678Z,1.10
2018-04-12T07:28:10.179Z,1.00
2018-04-12T07:30:37.746Z,0.90
2018-04-12T07:33:05.277Z,0.83
2018-04-12T07:35:33.542Z,1.00
2018-04-12T07:38:01.053Z,0.83
2018-04-12T07:40:28.594Z,0.80
2018-04-12T07:42:56.118Z,1.53
2018-04-12T07:45:23.622Z,1.10
2018-04-12T07:47:51.793Z,1.07
2018-04-12T07:50:19.302Z,1.10
2018-04-12T07:52:46.822Z,1.20
2018-04-12T07:55:26.139Z,1.37
2018-04-12T08:00:58.740Z,1.00
2018-04-12T08:03:26.245Z,0.83
2018-04-12T08:05:53.756Z,0.87
2018-04-12T08:08:21.826Z,0.70
2018-04-12T08:10:50.256Z,1.53
2018-04-12T08:13:17.786Z,1.00
2018-04-12T08:15:45.529Z,1.10
2018-04-12T08:18:24.161Z,0.77
2018-04-12T08:26:46.742Z,0.90
2018-04-12T08:29:15.453Z,1.07
2018-04-12T08:31:42.972Z,0.70
2018-04-12T08:34:10.519Z,1.08
2018-04-12T08:36:38.034Z,1.03
2018-04-12T08:39:05.554Z,0.80
2018-04-12T08:41:33.854Z,1.17
2018-04-12T08:44:01.366Z,2.33
2018-04-12T08:46:28.875Z,0.97
2018-04-12T08:48:56.620Z,1.30
2018-04-12T08:51:24.138Z,1.03
2018-04-12T08:53:52.417Z,1.20
2018-04-12T08:56:19.984Z,1.00
2018-04-12T08:58:47.497Z,1.00
2018-04-12T09:01:17.265Z,1.00
2018-04-12T09:03:45.559Z,1.30
2018-04-12T09:06:14.647Z,1.02
2018-04-12T09:08:42.158Z,1.00
2018-04-12T09:11:10.872Z,1.23
2018-04-12T09:13:38.654Z,1.10
2018-04-12T09:16:06.158Z,0.93
2018-04-12T09:18:34.467Z,1.27
2018-04-12T09:21:01.986Z,1.20
2018-04-12T09:23:29.516Z,1.50
2018-04-12T09:25:57.052Z,1.10
2018-04-12T09:28:24.567Z,1.13
2018-04-12T09:30:52.856Z,1.40
2018-04-12T09:33:21.002Z,1.30
2018-04-12T09:35:48.497Z,1.00
2018-04-12T09:38:16.407Z,1.13
2018-04-12T09:40:43.966Z,1.17
2018-04-12T09:43:11.503Z,1.12
2018-04-12T09:45:39.006Z,1.47
2018-04-12T09:48:06.855Z,1.23
2018-04-12T09:50:34.357Z,1.30
2018-04-12T09:53:02.674Z,1.17
2018-04-12T09:55:30.526Z,1.27
2018-04-12T09:57:58.034Z,0.90
2018-04-12T10:00:27.389Z,1.03
2018-04-12T10:02:55.842Z,1.13
2018-04-12T10:05:28.934Z,1.02
2018-04-12T10:08:02.071Z,1.00
2018-04-12T10:10:29.600Z,1.10
2018-04-12T10:12:57.721Z,1.30
2018-04-12T10:15:25.854Z,1.33
2018-04-12T10:17:53.367Z,0.90
2018-04-12T10:20:21.653Z,1.30
2018-04-12T10:22:49.186Z,1.50
2018-04-12T10:25:17.701Z,2.17
2018-04-12T10:27:45.221Z,1.03
2018-04-12T10:30:12.767Z,1.70
2018-04-12T10:32:40.397Z,1.50
2018-04-12T10:35:07.945Z,1.27
2018-04-12T10:37:35.823Z,1.12
2018-04-12T10:40:03.346Z,1.30
2018-04-12T10:42:31.704Z,1.10
2018-04-12T10:44:59.262Z,1.70
2018-04-12T10:47:26.769Z,1.20
2018-04-12T10:49:54.288Z,1.20
2018-04-12T10:52:21.845Z,1.35
2018-04-12T10:54:49.350Z,0.77
2018-04-12T10:57:16.859Z,0.90
2018-04-12T10:59:45.678Z,1.17
2018-04-12T11:02:24.276Z,0.93
2018-04-12T11:07:32.330Z,1.00
2018-04-12T11:09:59.847Z,1.23
2018-04-12T11:12:27.366Z,1.05
2018-04-12T11:14:57.078Z,0.90
2018-04-12T11:17:24.599Z,1.00
2018-04-12T11:19:52.122Z,1.10
2018-04-12T11:22:19.689Z,1.23
2018-04-12T11:24:47.362Z,0.90
2018-04-12T11:27:16.405Z,1.25
2018-04-12T11:29:43.985Z,1.40
2018-04-12T11:32:11.483Z,1.97
2018-04-12T11:34:39.784Z,2.27
2018-04-12T11:37:07.746Z,1.33
2018-04-12T11:39:35.330Z,1.00
2018-04-12T11:42:02.859Z,1.67
2018-04-12T11:44:30.410Z,1.40
2018-04-12T11:46:57.930Z,1.17
2018-04-12T11:49:25.465Z,0.93
2018-04-12T11:51:53.762Z,0.90
2018-04-12T11:54:21.298Z,0.90
2018-04-12T11:56:48.837Z,1.07
2018-04-12T11:59:18.040Z,1.18
2018-04-12T12:01:45.588Z,1.50
2018-04-12T12:04:23.597Z,1.20
2018-04-12T12:09:37.217Z,1.20
2018-04-12T12:12:05.687Z,1.10
2018-04-12T12:14:33.208Z,1.73
2018-04-12T12:17:02.079Z,1.03
2018-04-12T12:19:29.614Z,1.15
2018-04-12T12:21:57.886Z,1.27
2018-04-12T12:24:26.205Z,1.30
2018-04-12T12:26:53.866Z,0.70
2018-04-12T12:29:21.371Z,0.80
2018-04-12T12:31:49.682Z,0.90
2018-04-12T12:34:17.195Z,0.90
2018-04-12T12:36:44.905Z,0.97
2018-04-12T12:39:12.882Z,1.10
2018-04-12T12:41:40.397Z,0.97
2018-04-12T12:44:08.670Z,1.10
2018-04-12T12:46:36.218Z,0.90
2018-04-12T12:49:03.774Z,1.03
2018-04-12T12:51:31.294Z,0.90
2018-04-12T12:53:58.854Z,0.90
2018-04-12T12:56:26.403Z,1.50
2018-04-12T12:58:53.917Z,0.80
2018-04-12T13:01:22.656Z,0.90
2018-04-12T13:03:50.902Z,1.50
2018-04-12T13:06:18.446Z,1.07
2018-04-12T13:08:46.436Z,0.90
2018-04-12T13:11:15.564Z,1.00
2018-04-12T13:13:43.099Z,1.33
2018-04-12T13:16:10.661Z,0.80
2018-04-12T13:18:38.624Z,0.93
2018-04-12T13:21:06.138Z,1.57
2018-04-12T13:23:34.118Z,0.90
2018-04-12T13:26:02.394Z,0.90
2018-04-12T13:28:30.717Z,0.97
2018-04-12T13:30:58.263Z,1.13
2018-04-12T13:33:25.774Z,0.80
2018-04-12T13:35:53.279Z,0.80
2018-04-12T13:38:20.842Z,1.10
2018-04-12T13:40:48.346Z,0.60
2018-04-12T13:43:16.505Z,1.20
2018-04-12T13:45:44.099Z,0.60
2018-04-12T13:48:12.253Z,0.80
2018-04-12T13:50:39.760Z,0.67
2018-04-12T13:53:07.902Z,1.50
2018-04-12T13:55:36.028Z,0.70
2018-04-12T13:58:03.684Z,1.20
2018-04-12T14:00:31.264Z,1.08
2018-04-12T14:02:58.909Z,0.90
2018-04-12T14:05:26.740Z,1.27
2018-04-12T14:07:54.692Z,1.10
2018-04-12T14:10:22.319Z,1.13
2018-04-12T14:12:49.848Z,1.07
2018-04-12T14:15:17.692Z,0.80
2018-04-12T14:17:46.181Z,1.00
2018-04-12T14:20:26.140Z,1.20
2018-04-12T14:25:44.411Z,1.07
2018-04-12T14:28:11.910Z,0.90
2018-04-12T14:30:39.418Z,1.07
2018-04-12T14:33:06.954Z,1.37
2018-04-12T14:35:34.462Z,1.40
2018-04-12T14:38:02.579Z,1.00
2018-04-12T14:40:30.210Z,1.23
2018-04-12T14:42:58.538Z,1.20
2018-04-12T14:45:26.058Z,2.03
2018-04-12T14:47:54.387Z,1.50
2018-04-12T14:50:21.897Z,1.77
2018-04-12T14:52:50.187Z,1.53
2018-04-12T14:55:17.727Z,1.03
2018-04-12T14:57:45.260Z,1.00
2018-04-12T15:00:12.783Z,1.73
2018-04-12T15:02:40.484Z,1.43
2018-04-12T15:05:08.015Z,1.30
2018-04-12T15:07:35.523Z,1.43
2018-04-12T15:10:04.286Z,1.47
2018-04-12T15:12:31.848Z,1.53
2018-04-12T15:14:59.372Z,1.73
2018-04-12T15:17:26.933Z,1.70
2018-04-12T15:19:54.455Z,1.10
2018-04-12T15:22:23.646Z,1.10
2018-04-12T15:24:51.196Z,1.60
2018-04-12T15:27:19.479Z,1.30
2018-04-12T15:29:47.928Z,1.80
2018-04-12T15:32:16.983Z,1.50
2018-04-12T15:34:44.495Z,1.37
2018-04-12T15:37:12.009Z,1.67
2018-04-12T15:39:39.726Z,1.37
2018-04-12T15:42:07.249Z,1.53
2018-04-12T15:44:34.764Z,1.43
2018-04-12T15:47:02.319Z,1.93
2018-04-12T15:49:29.846Z,1.90
2018-04-12T15:51:57.357Z,1.40
2018-04-12T15:54:25.318Z,1.23
2018-04-12T15:56:53.602Z,1.20
2018-04-12T15:59:21.105Z,1.50
2018-04-12T16:01:48.637Z,1.10
2018-04-12T16:04:16.387Z,1.40
2018-04-12T16:06:43.899Z,1.80
2018-04-12T16:09:11.446Z,2.10
2018-04-12T16:11:38.953Z,1.47
2018-04-12T16:14:06.521Z,1.60
2018-04-12T16:16:34.593Z,2.33
2018-04-12T16:19:02.123Z,1.63
2018-04-12T16:21:29.639Z,1.83
2018-04-12T16:23:58.710Z,2.07
2018-04-12T16:26:26.234Z,3.53
2018-04-12T16:28:54.595Z,1.90
2018-04-12T16:31:22.962Z,3.00
2018-04-12T16:33:50.485Z,2.20
2018-04-12T16:36:17.990Z,1.70
2018-04-12T16:38:46.586Z,3.70
2018-04-12T16:41:16.291Z,2.30
2018-04-12T16:43:44.557Z,2.57
2018-04-12T16:46:13.781Z,3.57
2018-04-12T16:48:41.298Z,3.60
2018-04-12T16:51:08.834Z,1.60
2018-04-12T16:53:36.382Z,2.30
2018-04-12T16:56:04.131Z,1.73
2018-04-12T16:58:31.647Z,3.30
2018-04-12T17:00:59.767Z,1.83
2018-04-12T17:03:27.429Z,2.07
2018-04-12T17:05:54.943Z,2.17
2018-04-12T17:08:23.289Z,2.40
2018-04-12T17:10:50.797Z,1.57
2018-04-12T17:13:18.310Z,2.00
2018-04-12T17:15:46.606Z,1.93
2018-04-12T17:18:25.583Z,1.75
2018-04-12T17:23:42.918Z,2.77
2018-04-12T17:26:11.229Z,3.00
2018-04-12T17:28:38.741Z,1.53
2018-04-12T17:31:06.289Z,2.13
2018-04-12T17:33:33.807Z,2.93
2018-04-12T17:36:01.310Z,2.00
2018-04-12T17:38:28.875Z,1.60
2018-04-12T17:40:56.403Z,1.80
2018-04-12T17:43:24.675Z,2.10
2018-04-12T17:45:53.196Z,1.77
2018-04-12T17:48:20.713Z,1.63
2018-04-12T17:50:48.590Z,4.17
2018-04-12T17:53:16.419Z,2.08
2018-04-12T17:55:43.948Z,1.43
2018-04-12T17:58:11.461Z,1.42
2018-04-12T18:00:39.052Z,1.73
2018-04-12T18:03:06.570Z,1.77
2018-04-12T18:05:34.084Z,2.67
2018-04-12T18:08:02.068Z,1.90
2018-04-12T18:10:29.598Z,2.00
2018-04-12T18:12:57.176Z,2.60
2018-04-12T18:15:24.729Z,1.37
2018-04-12T18:17:52.246Z,1.80
2018-04-12T18:20:19.796Z,3.28
2018-04-12T18:22:47.316Z,3.00
2018-04-12T18:25:16.451Z,2.78
2018-04-12T18:27:44.317Z,3.10
2018-04-12T18:30:12.222Z,3.03
2018-04-12T18:32:39.749Z,2.70
2018-04-12T18:35:07.454Z,2.33
2018-04-12T18:37:34.994Z,2.60
2018-04-12T18:40:02.531Z,2.00
2018-04-12T18:42:30.043Z,1.47
2018-04-12T18:44:57.825Z,1.90
2018-04-12T18:47:25.338Z,2.10
2018-04-12T18:49:52.854Z,3.13
2018-04-12T18:52:20.886Z,1.60
2018-04-12T18:54:48.400Z,1.37
2018-04-12T18:57:17.561Z,1.76
2018-04-12T18:59:45.133Z,1.53
2018-04-12T19:02:13.777Z,1.80
2018-04-12T19:04:41.278Z,1.80
2018-04-12T19:07:08.846Z,1.47
2018-04-12T19:09:36.351Z,1.67
2018-04-12T19:12:03.904Z,2.63
2018-04-12T19:14:32.202Z,2.30
2018-04-12T19:16:59.710Z,1.60
2018-04-12T19:19:27.985Z,1.80
2018-04-12T19:21:56.277Z,2.00
2018-04-12T19:24:23.893Z,2.53
2018-04-12T19:26:51.408Z,3.47
2018-04-12T19:29:19.342Z,2.03
2018-04-12T19:31:47.619Z,3.13
2018-04-12T19:34:16.589Z,2.20
2018-04-12T19:36:44.939Z,1.77
2018-04-12T19:39:12.442Z,1.65
2018-04-12T19:41:40.780Z,1.70
2018-04-12T19:44:08.371Z,2.00
2018-04-12T19:46:35.902Z,1.97
2018-04-12T19:49:03.414Z,1.57
2018-04-12T19:51:30.970Z,1.30
2018-04-12T19:53:58.523Z,1.48
2018-04-12T19:56:26.063Z,1.50
2018-04-12T19:58:53.655Z,1.40
2018-04-12T20:01:21.186Z,1.32
2018-04-12T20:03:49.715Z,1.20
2018-04-12T20:06:18.130Z,1.43
2018-04-12T20:08:45.681Z,1.33
2018-04-12T20:11:14.543Z,1.80
2018-04-12T20:13:42.074Z,1.90
2018-04-12T20:16:10.503Z,2.78
2018-04-12T20:18:38.176Z,2.17
2018-04-12T20:21:05.776Z,2.23
2018-04-12T20:23:33.282Z,2.70
2018-04-12T20:26:00.783Z,2.80
2018-04-12T20:28:29.142Z,4.20
2018-04-12T20:30:58.202Z,3.30
2018-04-12T20:33:25.722Z,3.30
2018-04-12T20:35:54.124Z,2.80
2018-04-12T20:38:21.671Z,6.23
2018-04-12T20:40:49.274Z,5.60
2018-04-12T20:43:18.309Z,9.52
2018-04-12T20:45:46.368Z,15.70
2018-04-12T20:48:17.142Z,9.88
2018-04-12T20:50:45.494Z,4.87
2018-04-12T20:53:15.298Z,2.65
2018-04-12T20:55:43.656Z,1.90
2018-04-12T20:58:11.218Z,2.50
2018-04-12T21:00:38.774Z,2.10
2018-04-12T21:03:06.386Z,2.37
2018-04-12T21:05:33.947Z,2.07
2018-04-12T21:08:01.506Z,2.60
2018-04-12T21:10:29.751Z,2.70
2018-04-12T21:12:57.313Z,2.30
2018-04-12T21:15:25.703Z,2.83
2018-04-12T21:17:53.117Z,2.20
2018-04-12T21:20:20.698Z,2.47
2018-04-12T21:22:48.973Z,2.27
2018-04-12T21:25:17.566Z,2.50
2018-04-12T21:27:45.247Z,2.20
2018-04-12T21:30:13.674Z,2.40
2018-04-12T21:32:41.858Z,1.93
2018-04-12T21:35:09.530Z,2.83
2018-04-12T21:37:37.807Z,2.90
2018-04-12T21:40:05.330Z,2.87
2018-04-12T21:42:32.865Z,2.78
2018-04-12T21:45:00.380Z,4.83
2018-04-12T21:47:28.081Z,6.37
2018-04-12T21:49:56.048Z,4.37
2018-04-12T21:52:23.559Z,4.07
2018-04-12T21:54:51.078Z,3.00
2018-04-12T21:57:18.633Z,2.58
2018-04-12T21:59:46.150Z,2.60
2018-04-12T22:02:16.277Z,2.90
2018-04-12T22:04:44.580Z,2.10
2018-04-12T22:07:12.093Z,2.43
2018-04-12T22:09:39.607Z,2.05
2018-04-12T22:12:07.446Z,3.00
2018-04-12T22:14:34.965Z,2.00
2018-04-12T22:17:02.479Z,2.07
2018-04-12T22:19:30.005Z,1.50
2018-04-12T22:21:58.283Z,1.92
2018-04-12T22:24:26.558Z,2.10
2018-04-12T22:26:54.863Z,2.17
2018-04-12T22:29:22.365Z,2.50
2018-04-12T22:31:49.886Z,1.93
2018-04-12T22:34:19.054Z,2.40
2018-04-12T22:36:46.565Z,2.27
2018-04-12T22:39:16.305Z,2.25
2018-04-12T22:41:44.602Z,2.00
2018-04-12T22:44:12.111Z,2.20
2018-04-12T22:46:39.632Z,2.30
2018-04-12T22:49:07.165Z,2.30
2018-04-12T22:51:35.439Z,3.00
2018-04-12T22:54:03.737Z,2.50
2018-04-12T22:56:31.911Z,2.13
2018-04-12T22:58:59.415Z,2.70
2018-04-12T23:01:27.445Z,2.12
2018-04-12T23:03:54.994Z,2.53
2018-04-12T23:06:22.537Z,2.50
2018-04-12T23:08:50.070Z,3.20
2018-04-12T23:11:17.639Z,2.30
2018-04-12T23:13:45.915Z,2.77
2018-04-12T23:16:25.352Z,2.40
2018-04-12T23:21:26.759Z,2.37
2018-04-12T23:23:54.299Z,2.80
2018-04-12T23:26:22.581Z,2.57
2018-04-12T23:28:50.129Z,2.40
2018-04-12T23:31:17.689Z,2.17
2018-04-12T23:33:46.039Z,2.60
2018-04-12T23:36:15.262Z,2.20
2018-04-12T23:38:42.813Z,1.90
2018-04-12T23:41:10.326Z,2.10
2018-04-12T23:43:39.078Z,1.73
2018-04-12T23:46:06.599Z,2.43
2018-04-12T23:48:34.113Z,2.03
2018-04-12T23:51:01.671Z,2.00
2018-04-12T23:53:29.198Z,2.13
2018-04-12T23:55:57.470Z,1.80
2018-04-12T23:58:25.824Z,1.93
